createdAt,value
2022-12-01T00:02:01.288Z,19.15
2022-12-01T00:04:28.426Z,18.80
2022-12-01T00:06:55.456Z,20.20
2022-12-01T00:09:41.354Z,19.92
2022-12-01T00:12:08.375Z,19.35
2022-12-01T00:14:35.414Z,19.70
2022-12-01T00:17:02.446Z,18.95
2022-12-01T00:19:29.469Z,20.42
2022-12-01T00:21:56.570Z,20.42
2022-12-01T00:24:24.534Z,20.00
2022-12-01T00:26:51.627Z,21.10
2022-12-01T00:29:18.762Z,19.35
2022-12-01T00:31:45.878Z,21.23
2022-12-01T00:34:21.593Z,21.17
2022-12-01T00:36:48.672Z,20.83
2022-12-01T00:39:15.782Z,19.85
2022-12-01T00:41:42.864Z,19.58
2022-12-01T00:44:09.966Z,20.33
2022-12-01T00:46:37.014Z,21.55
2022-12-01T00:49:04.156Z,21.85
2022-12-01T00:51:31.221Z,20.45
2022-12-01T00:53:58.386Z,21.75
2022-12-01T00:56:25.463Z,21.92
2022-12-01T00:58:52.513Z,23.08
2022-12-01T01:01:20.139Z,22.48
2022-12-01T01:03:47.310Z,22.90
2022-12-01T01:06:14.352Z,23.48
2022-12-01T01:08:41.481Z,22.45
2022-12-01T01:11:09.082Z,23.75
2022-12-01T01:13:36.295Z,21.98
2022-12-01T01:16:04.125Z,23.38
2022-12-01T01:18:31.238Z,24.08
2022-12-01T01:21:05.965Z,23.42
2022-12-01T01:23:33.045Z,23.23
2022-12-01T01:26:09.400Z,22.85
2022-12-01T01:28:36.528Z,23.95
2022-12-01T01:31:07.026Z,23.75
2022-12-01T01:36:01.272Z,23.77
2022-12-01T01:38:28.612Z,27.63
2022-12-01T01:40:55.726Z,28.95
2022-12-01T01:43:41.954Z,28.17
2022-12-01T01:46:12.769Z,25.73
2022-12-01T01:48:39.913Z,27.45
2022-12-01T01:51:07.118Z,26.60
2022-12-01T01:53:34.132Z,28.05
2022-12-01T01:56:01.138Z,29.33
2022-12-01T01:58:28.269Z,27.10
2022-12-01T02:00:55.345Z,24.05
2022-12-01T02:03:22.583Z,20.77
2022-12-01T02:05:49.621Z,19.13
2022-12-01T02:08:16.647Z,18.20
2022-12-01T02:11:02.043Z,18.42
2022-12-01T02:13:38.074Z,18.27
2022-12-01T02:16:20.189Z,18.85
2022-12-01T02:18:53.237Z,18.77
2022-12-01T02:21:23.092Z,19.38
2022-12-01T02:24:08.704Z,19.77
2022-12-01T02:26:47.012Z,20.33
2022-12-01T02:29:37.430Z,18.83
2022-12-01T02:32:24.734Z,18.02
2022-12-01T02:34:57.696Z,18.48
2022-12-01T02:37:25.817Z,18.15
2022-12-01T02:40:02.723Z,16.40
2022-12-01T02:42:51.811Z,17.90
2022-12-01T02:45:29.657Z,17.00
2022-12-01T02:47:57.137Z,15.95
2022-12-01T02:50:24.138Z,16.25
2022-12-01T02:52:51.239Z,16.25
2022-12-01T02:55:18.348Z,17.13
2022-12-01T02:57:45.425Z,17.20
2022-12-01T03:00:13.703Z,16.58
2022-12-01T03:02:43.924Z,17.20
2022-12-01T03:05:12.789Z,17.13
2022-12-01T03:07:40.456Z,16.85
2022-12-01T03:10:19.451Z,15.85
2022-12-01T03:12:49.565Z,16.55
2022-12-01T03:15:19.549Z,16.40
2022-12-01T03:18:07.010Z,15.82
2022-12-01T03:20:44.509Z,15.15
2022-12-01T03:23:13.214Z,15.85
2022-12-01T03:25:40.894Z,16.20
2022-12-01T03:28:24.594Z,16.10
2022-12-01T03:30:51.946Z,15.88
2022-12-01T03:33:21.850Z,16.65
2022-12-01T03:35:48.899Z,16.10
2022-12-01T03:38:18.485Z,15.23
2022-12-01T03:40:45.958Z,15.40
2022-12-01T03:43:14.505Z,15.75
2022-12-01T03:45:44.044Z,15.07
2022-12-01T03:48:11.092Z,15.25
2022-12-01T03:50:56.688Z,14.27
2022-12-01T03:53:24.878Z,15.20
2022-12-01T03:55:53.060Z,16.73
2022-12-01T03:58:28.257Z,15.38
2022-12-01T04:00:57.619Z,15.15
2022-12-01T04:03:25.132Z,16.23
2022-12-01T04:05:52.291Z,16.50
2022-12-01T04:08:19.369Z,15.50
2022-12-01T04:10:46.434Z,16.33
2022-12-01T04:13:22.596Z,15.77
2022-12-01T04:15:58.486Z,15.25
2022-12-01T04:18:25.543Z,15.85
2022-12-01T04:20:52.620Z,16.65
2022-12-01T04:23:38.570Z,16.60
2022-12-01T04:26:05.754Z,15.85
2022-12-01T04:28:32.827Z,15.43
2022-12-01T04:30:59.987Z,16.30
2022-12-01T04:33:27.050Z,16.35
2022-12-01T04:36:00.247Z,16.20
2022-12-01T04:38:30.540Z,16.23
2022-12-01T04:40:58.003Z,15.52
2022-12-01T04:43:25.111Z,16.77
2022-12-01T04:45:52.191Z,17.60
2022-12-01T04:48:19.261Z,16.95
2022-12-01T04:50:46.347Z,17.50
2022-12-01T04:53:13.407Z,18.00
2022-12-01T04:55:40.451Z,17.45
2022-12-01T04:58:07.501Z,18.23
2022-12-01T05:00:34.568Z,17.23
2022-12-01T05:03:01.939Z,17.02
2022-12-01T05:05:29.213Z,17.60
2022-12-01T05:07:56.428Z,18.00
2022-12-01T05:10:23.632Z,17.58
2022-12-01T05:12:50.901Z,17.48
2022-12-01T05:15:18.034Z,17.48
2022-12-01T05:17:45.174Z,17.63
2022-12-01T05:20:48.838Z,19.95
2022-12-01T05:23:17.170Z,18.63
2022-12-01T05:25:44.403Z,17.65
2022-12-01T05:28:11.507Z,19.58
2022-12-01T05:30:38.590Z,18.60
2022-12-01T05:33:05.614Z,18.50
2022-12-01T05:35:33.883Z,18.85
2022-12-01T05:38:06.077Z,18.08
2022-12-01T05:40:34.741Z,18.73
2022-12-01T05:43:01.876Z,19.35
2022-12-01T05:45:28.997Z,19.60
2022-12-01T05:47:56.649Z,19.00
2022-12-01T05:50:24.095Z,18.98
2022-12-01T05:52:51.178Z,18.75
2022-12-01T05:55:18.343Z,18.55
2022-12-01T05:57:45.464Z,19.35
2022-12-01T06:00:13.083Z,18.95
2022-12-01T06:02:40.709Z,19.45
2022-12-01T06:05:08.140Z,20.15
2022-12-01T06:07:35.744Z,18.77
2022-12-01T06:10:02.957Z,19.85
2022-12-01T06:12:30.038Z,20.35
2022-12-01T06:14:57.055Z,19.92
2022-12-01T06:17:24.139Z,19.33
2022-12-01T06:19:51.452Z,19.25
2022-12-01T06:22:18.743Z,19.02
2022-12-01T06:24:45.767Z,19.65
2022-12-01T06:27:12.782Z,20.27
2022-12-01T06:29:42.229Z,20.52
2022-12-01T06:32:09.799Z,19.70
2022-12-01T06:34:36.886Z,21.17
2022-12-01T06:37:03.874Z,20.65
2022-12-01T06:39:30.920Z,21.33
2022-12-01T06:41:57.907Z,20.15
2022-12-01T06:44:24.899Z,20.40
2022-12-01T06:46:52.913Z,19.88
2022-12-01T06:49:20.124Z,20.52
2022-12-01T06:51:47.412Z,19.77
2022-12-01T06:54:15.155Z,20.42
2022-12-01T06:56:43.165Z,21.70
2022-12-01T06:59:10.399Z,20.20
2022-12-01T07:01:37.621Z,21.95
2022-12-01T07:04:04.774Z,20.67
2022-12-01T07:06:31.923Z,23.20
2022-12-01T07:08:58.987Z,22.05
2022-12-01T07:11:26.013Z,21.50
2022-12-01T07:13:55.675Z,22.33
2022-12-01T07:16:23.038Z,21.77
2022-12-01T07:18:50.215Z,21.77
2022-12-01T07:21:17.200Z,23.17
2022-12-01T07:23:44.247Z,24.05
2022-12-01T07:26:15.248Z,23.70
2022-12-01T07:28:42.451Z,23.55
2022-12-01T07:31:13.896Z,22.13
2022-12-01T07:33:41.318Z,23.15
2022-12-01T07:36:08.751Z,23.33
2022-12-01T07:38:35.887Z,24.92
2022-12-01T07:41:06.466Z,22.58
2022-12-01T07:46:06.746Z,22.17
2022-12-01T07:48:33.895Z,24.08
2022-12-01T07:51:00.969Z,24.00
2022-12-01T07:53:28.000Z,25.27
2022-12-01T07:55:55.181Z,23.77
2022-12-01T07:58:22.191Z,21.48
2022-12-01T08:00:49.209Z,22.20
2022-12-01T08:03:16.308Z,22.38
2022-12-01T08:05:43.379Z,21.73
2022-12-01T08:08:10.451Z,21.88
2022-12-01T08:10:37.539Z,20.42
2022-12-01T08:13:04.837Z,20.85
2022-12-01T08:15:31.940Z,19.33
2022-12-01T08:18:01.283Z,19.38
2022-12-01T08:20:28.360Z,18.95
2022-12-01T08:22:55.485Z,19.00
2022-12-01T08:25:22.514Z,18.77
2022-12-01T08:27:49.541Z,19.02
2022-12-01T08:30:16.664Z,19.90
2022-12-01T08:32:43.633Z,19.73
2022-12-01T08:35:10.715Z,19.88
2022-12-01T08:37:37.738Z,19.58
2022-12-01T08:40:04.973Z,21.90
2022-12-01T08:42:32.004Z,20.98
2022-12-01T08:44:59.092Z,21.02
2022-12-01T08:47:27.915Z,21.02
2022-12-01T08:49:54.966Z,20.73
2022-12-01T08:52:21.999Z,20.85
2022-12-01T08:54:49.055Z,21.33
2022-12-01T08:57:16.091Z,20.95
2022-12-01T08:59:44.399Z,20.75
2022-12-01T09:02:15.015Z,20.88
2022-12-01T09:04:42.095Z,21.45
2022-12-01T09:07:10.038Z,19.98
2022-12-01T09:09:37.177Z,18.92
2022-12-01T09:12:04.305Z,18.77
2022-12-01T09:14:31.428Z,19.33
2022-12-01T09:16:58.517Z,18.58
2022-12-01T09:19:25.557Z,18.48
2022-12-01T09:21:52.743Z,19.42
2022-12-01T09:24:19.852Z,19.13
2022-12-01T09:26:47.097Z,20.00
2022-12-01T09:29:14.795Z,19.17
2022-12-01T09:31:42.579Z,19.75
2022-12-01T09:34:11.700Z,19.10
2022-12-01T09:36:38.704Z,19.10
2022-12-01T09:39:06.458Z,19.10
2022-12-01T09:41:34.960Z,19.90
2022-12-01T09:44:10.583Z,18.52
2022-12-01T09:46:40.724Z,19.58
2022-12-01T09:49:09.679Z,19.77
2022-12-01T09:51:37.544Z,18.58
2022-12-01T09:54:04.685Z,21.88
2022-12-01T09:56:37.064Z,18.45
2022-12-01T09:59:07.226Z,19.40
2022-12-01T10:01:36.208Z,19.27
2022-12-01T10:04:06.521Z,18.90
2022-12-01T10:06:37.967Z,18.42
2022-12-01T10:09:24.785Z,18.55
2022-12-01T10:11:52.428Z,18.55
2022-12-01T10:14:20.746Z,18.65
2022-12-01T10:17:06.665Z,19.30
2022-12-01T10:19:54.010Z,19.60
2022-12-01T10:22:27.279Z,19.92
2022-12-01T10:24:55.458Z,18.27
2022-12-01T10:27:41.401Z,19.90
2022-12-01T10:30:11.806Z,19.35
2022-12-01T10:32:58.240Z,18.65
2022-12-01T10:35:29.079Z,19.80
2022-12-01T10:37:58.018Z,20.33
2022-12-01T10:40:25.073Z,20.67
2022-12-01T10:42:52.264Z,21.13
2022-12-01T10:45:24.398Z,18.33
2022-12-01T10:48:10.330Z,19.10
2022-12-01T10:50:37.561Z,19.48
2022-12-01T10:53:05.833Z,17.88
2022-12-01T10:55:33.886Z,16.15
2022-12-01T10:58:06.159Z,15.10
2022-12-01T11:03:27.850Z,16.55
2022-12-01T11:05:58.936Z,16.63
2022-12-01T11:08:44.993Z,16.52
2022-12-01T11:11:30.699Z,15.27
2022-12-01T11:13:58.034Z,15.23
2022-12-01T11:16:34.219Z,14.02
2022-12-01T11:19:26.973Z,15.70
2022-12-01T11:21:55.633Z,16.80
2022-12-01T11:24:25.883Z,15.05
2022-12-01T11:26:52.899Z,15.43
2022-12-01T11:29:36.126Z,15.73
2022-12-01T11:32:05.302Z,16.73
2022-12-01T11:34:34.341Z,15.32
2022-12-01T11:37:02.370Z,15.23
2022-12-01T11:39:32.343Z,15.18
2022-12-01T11:42:04.471Z,15.60
2022-12-01T11:47:25.597Z,16.17
2022-12-01T11:49:59.568Z,16.13
2022-12-01T11:52:32.895Z,16.02
2022-12-01T11:57:51.957Z,15.93
2022-12-01T12:00:23.104Z,16.90
2022-12-01T12:02:57.346Z,17.45
2022-12-01T12:05:42.666Z,15.70
2022-12-01T12:08:13.110Z,16.02
2022-12-01T12:10:40.129Z,17.25
2022-12-01T12:13:16.020Z,16.42
2022-12-01T12:16:08.719Z,17.38
2022-12-01T12:18:48.662Z,15.95
2022-12-01T12:21:20.617Z,16.50
2022-12-01T12:23:58.254Z,15.50
2022-12-01T12:26:32.791Z,16.05
2022-12-01T12:29:14.251Z,15.43
2022-12-01T12:31:50.524Z,16.77
2022-12-01T12:34:25.204Z,17.08
2022-12-01T12:36:55.278Z,17.45
2022-12-01T12:39:30.442Z,16.75
2022-12-01T12:41:57.490Z,16.63
2022-12-01T12:44:43.507Z,16.85
2022-12-01T12:47:29.457Z,16.50
2022-12-01T12:50:00.378Z,17.35
2022-12-01T12:52:30.063Z,16.83
2022-12-01T12:54:57.086Z,16.07
2022-12-01T12:57:27.355Z,17.00
2022-12-01T12:59:57.769Z,16.13
2022-12-01T13:02:39.618Z,15.80
2022-12-01T13:05:30.173Z,16.35
2022-12-01T13:08:01.940Z,16.30
2022-12-01T13:10:37.994Z,16.20
2022-12-01T13:13:23.947Z,15.98
2022-12-01T13:15:51.260Z,15.52
2022-12-01T13:18:37.083Z,16.80
2022-12-01T13:21:04.652Z,15.05
2022-12-01T13:23:31.772Z,16.70
2022-12-01T13:25:59.371Z,16.27
2022-12-01T13:28:30.339Z,14.95
2022-12-01T13:31:15.950Z,15.70
2022-12-01T13:33:45.927Z,14.95
2022-12-01T13:36:45.129Z,15.20
2022-12-01T13:39:00.918Z,15.57
2022-12-01T13:41:34.428Z,16.77
2022-12-01T13:44:20.410Z,16.60
2022-12-01T13:46:47.503Z,16.00
2022-12-01T13:49:33.871Z,16.77
2022-12-01T13:52:19.755Z,15.75
2022-12-01T13:55:05.552Z,16.67
2022-12-01T13:57:32.925Z,16.65
2022-12-01T13:59:59.902Z,17.40
2022-12-01T14:02:36.625Z,16.73
2022-12-01T14:05:22.715Z,17.25
2022-12-01T14:07:50.424Z,16.48
2022-12-01T14:10:22.268Z,17.45
2022-12-01T14:12:49.275Z,16.92
2022-12-01T14:15:30.726Z,18.17
2022-12-01T14:18:05.180Z,16.55
2022-12-01T14:20:33.391Z,17.52
2022-12-01T14:23:04.724Z,17.98
2022-12-01T14:25:31.766Z,17.80
2022-12-01T14:28:00.116Z,18.10
2022-12-01T14:30:44.682Z,17.67
2022-12-01T14:33:30.792Z,19.02
2022-12-01T14:36:00.924Z,16.65
2022-12-01T14:38:27.927Z,19.25
2022-12-01T14:40:54.912Z,18.58
2022-12-01T14:43:40.288Z,17.98
2022-12-01T14:46:08.033Z,17.45
2022-12-01T14:48:38.945Z,18.95
2022-12-01T14:51:24.909Z,18.42
2022-12-01T14:53:51.895Z,19.27
2022-12-01T14:56:19.524Z,20.70
2022-12-01T14:58:59.815Z,21.17
2022-12-01T15:01:30.935Z,19.35
2022-12-01T15:03:58.734Z,20.20
2022-12-01T15:06:26.460Z,19.92
2022-12-01T15:12:00.936Z,19.98
2022-12-01T15:14:32.191Z,22.58
2022-12-01T15:16:59.343Z,23.83
2022-12-01T15:19:30.711Z,20.83
2022-12-01T15:21:57.859Z,20.35
2022-12-01T15:24:25.718Z,21.08
2022-12-01T15:27:02.164Z,20.15
2022-12-01T15:29:31.436Z,21.50
2022-12-01T15:32:00.092Z,21.67
2022-12-01T15:34:31.515Z,20.55
2022-12-01T15:36:58.854Z,21.60
2022-12-01T15:39:36.070Z,21.00
2022-12-01T15:42:03.316Z,21.83
2022-12-01T15:44:31.356Z,21.98
2022-12-01T15:46:58.448Z,22.42
2022-12-01T15:49:27.673Z,22.65
2022-12-01T15:51:54.835Z,21.48
2022-12-01T15:54:23.470Z,23.42
2022-12-01T15:56:56.835Z,27.77
2022-12-01T15:59:28.484Z,23.60
2022-12-01T16:01:56.735Z,23.25
2022-12-01T16:04:24.898Z,22.85
2022-12-01T16:06:53.580Z,22.88
2022-12-01T16:09:22.444Z,21.88
2022-12-01T16:12:08.056Z,21.95
2022-12-01T16:14:35.440Z,22.77
2022-12-01T16:17:02.651Z,21.35
2022-12-01T16:19:30.720Z,22.15
2022-12-01T16:21:59.325Z,22.63
2022-12-01T16:24:30.818Z,23.05
2022-12-01T16:26:59.836Z,23.20
2022-12-01T16:29:27.162Z,22.35
2022-12-01T16:34:48.452Z,24.48
2022-12-01T16:37:15.495Z,24.15
2022-12-01T16:39:42.651Z,24.73
2022-12-01T16:42:12.287Z,23.30
2022-12-01T16:44:39.389Z,23.93
2022-12-01T16:47:16.974Z,22.92
2022-12-01T16:49:44.122Z,26.92
2022-12-01T16:54:58.425Z,23.50
2022-12-01T16:57:25.443Z,23.88
2022-12-01T16:59:52.421Z,23.08
2022-12-01T17:02:19.535Z,22.42
2022-12-01T17:04:46.558Z,24.33
2022-12-01T17:07:13.637Z,23.35
2022-12-01T17:09:40.734Z,24.73
2022-12-01T17:12:07.819Z,23.92
2022-12-01T17:14:34.856Z,22.88
2022-12-01T17:17:01.930Z,25.58
2022-12-01T17:19:28.954Z,23.65
2022-12-01T17:21:56.865Z,22.90
2022-12-01T17:24:25.775Z,23.45
2022-12-01T17:26:52.809Z,26.45
2022-12-01T17:29:19.873Z,28.75
2022-12-01T17:31:46.967Z,28.45
2022-12-01T17:34:14.023Z,27.60
2022-12-01T17:36:41.611Z,23.05
2022-12-01T17:39:08.687Z,23.80
2022-12-01T17:41:36.089Z,24.60
2022-12-01T17:44:06.140Z,28.30
2022-12-01T17:46:33.303Z,26.05
2022-12-01T17:49:00.459Z,31.20
2022-12-01T17:51:27.642Z,27.92
2022-12-01T17:53:56.020Z,29.15
2022-12-01T17:56:23.007Z,26.90
2022-12-01T17:58:51.265Z,27.23
2022-12-01T18:01:18.954Z,25.58
2022-12-01T18:03:46.138Z,24.45
2022-12-01T18:06:13.270Z,26.02
2022-12-01T18:08:40.384Z,26.15
2022-12-01T18:11:09.745Z,24.73
2022-12-01T18:13:40.342Z,24.88
2022-12-01T18:18:34.349Z,26.55
2022-12-01T18:21:04.541Z,27.50
2022-12-01T18:23:31.736Z,26.58
2022-12-01T18:26:00.038Z,25.58
2022-12-01T18:28:27.023Z,25.33
2022-12-01T18:30:54.136Z,26.73
2022-12-01T18:33:21.195Z,26.55
2022-12-01T18:35:48.204Z,25.48
2022-12-01T18:38:15.292Z,26.98
2022-12-01T18:40:42.330Z,26.45
2022-12-01T18:43:09.415Z,25.52
2022-12-01T18:45:39.862Z,27.85
2022-12-01T18:48:10.632Z,29.15
2022-12-01T18:50:37.880Z,30.25
2022-12-01T18:53:04.967Z,26.13
2022-12-01T18:55:32.027Z,24.48
2022-12-01T18:57:59.114Z,25.10
2022-12-01T19:00:26.258Z,26.00
2022-12-01T19:02:53.330Z,27.65
2022-12-01T19:05:20.582Z,27.35
2022-12-01T19:07:47.967Z,26.83
2022-12-01T19:10:15.082Z,26.25
2022-12-01T19:12:42.102Z,26.38
2022-12-01T19:15:09.493Z,26.38
2022-12-01T19:17:36.479Z,26.33
2022-12-01T19:20:04.651Z,26.30
2022-12-01T19:22:32.090Z,26.00
2022-12-01T19:24:59.109Z,26.63
2022-12-01T19:27:26.219Z,24.17
2022-12-01T19:29:53.837Z,26.38
2022-12-01T19:32:21.178Z,25.50
2022-12-01T19:34:48.671Z,25.40
2022-12-01T19:37:15.979Z,27.05
2022-12-01T19:39:43.038Z,26.50
2022-12-01T19:42:10.074Z,27.70
2022-12-01T19:44:37.147Z,26.20
2022-12-01T19:47:04.234Z,26.15
2022-12-01T19:49:31.309Z,26.85
2022-12-01T19:51:58.457Z,26.25
2022-12-01T19:54:25.661Z,26.35
2022-12-01T19:56:52.692Z,25.25
2022-12-01T19:59:19.706Z,26.85
2022-12-01T20:01:46.863Z,25.80
2022-12-01T20:04:13.949Z,27.40
2022-12-01T20:06:40.997Z,27.17
2022-12-01T20:09:08.097Z,25.67
2022-12-01T20:11:35.472Z,26.55
2022-12-01T20:14:03.251Z,27.80
2022-12-01T20:16:33.182Z,30.08
2022-12-01T20:19:01.318Z,30.08
2022-12-01T20:21:32.186Z,29.75
2022-12-01T20:24:00.269Z,26.75
2022-12-01T20:26:30.556Z,25.88
2022-12-01T20:31:26.342Z,26.13
2022-12-01T20:33:53.787Z,25.88
2022-12-01T20:36:20.796Z,26.90
2022-12-01T20:38:47.916Z,25.90
2022-12-01T20:41:15.060Z,26.08
2022-12-01T20:43:42.204Z,25.48
2022-12-01T20:46:09.407Z,27.42
2022-12-01T20:48:36.522Z,26.88
2022-12-01T20:51:04.225Z,26.30
2022-12-01T20:53:31.352Z,26.10
2022-12-01T20:55:58.412Z,23.92
2022-12-01T20:58:25.453Z,24.38
2022-12-01T21:00:52.715Z,24.35
2022-12-01T21:03:19.813Z,24.88
2022-12-01T21:05:46.858Z,23.92
2022-12-01T21:08:24.364Z,25.50
2022-12-01T21:10:51.401Z,26.13
2022-12-01T21:13:38.072Z,24.60
2022-12-01T21:16:19.195Z,22.77
2022-12-01T21:18:46.417Z,25.90
2022-12-01T21:21:20.706Z,24.88
2022-12-01T21:23:48.149Z,24.40
2022-12-01T21:26:19.026Z,23.48
2022-12-01T21:28:46.288Z,24.10
2022-12-01T21:31:16.672Z,24.83
2022-12-01T21:33:43.836Z,23.88
2022-12-01T21:36:17.857Z,25.65
2022-12-01T21:38:45.054Z,25.45
2022-12-01T21:41:25.049Z,24.13
2022-12-01T21:43:52.399Z,24.30
2022-12-01T21:46:19.667Z,23.10
2022-12-01T21:48:46.764Z,21.83
2022-12-01T21:51:20.942Z,22.42
2022-12-01T21:53:48.732Z,22.00
2022-12-01T21:56:17.255Z,23.02
2022-12-01T22:06:33.292Z,23.30
2022-12-01T22:08:51.758Z,21.25
2022-12-01T22:11:19.840Z,21.02
2022-12-01T22:14:25.487Z,20.95
2022-12-01T22:16:55.255Z,19.85
2022-12-01T22:19:28.203Z,22.33
2022-12-01T22:22:00.723Z,19.80
2022-12-01T22:24:35.389Z,21.40
2022-12-01T22:27:23.686Z,20.52
2022-12-01T22:29:55.031Z,21.13
2022-12-01T22:32:29.995Z,21.70
2022-12-01T22:34:57.676Z,21.23
2022-12-01T22:37:37.196Z,20.67
2022-12-01T22:40:07.041Z,22.35
2022-12-01T22:42:35.490Z,21.92
2022-12-01T22:45:15.707Z,21.00
2022-12-01T22:47:42.938Z,22.08
2022-12-01T22:50:28.587Z,21.52
2022-12-01T22:53:06.975Z,21.75
2022-12-01T22:55:34.116Z,23.70
2022-12-01T22:58:20.729Z,21.85
2022-12-01T23:00:49.352Z,23.63
2022-12-01T23:03:19.769Z,20.80
2022-12-01T23:08:17.449Z,22.00
2022-12-01T23:13:16.357Z,21.02
2022-12-01T23:15:47.219Z,22.38
2022-12-01T23:18:14.871Z,22.52
2022-12-01T23:20:44.426Z,21.73
2022-12-01T23:23:13.863Z,22.77
2022-12-01T23:25:41.128Z,22.58
2022-12-01T23:28:08.687Z,22.02
2022-12-01T23:30:36.048Z,22.30
2022-12-01T23:33:06.883Z,23.00
2022-12-01T23:35:34.545Z,22.38
2022-12-01T23:38:04.340Z,21.52
2022-12-01T23:40:33.620Z,22.20
2022-12-01T23:43:10.808Z,22.33
2022-12-01T23:45:43.501Z,21.33
2022-12-01T23:48:17.454Z,21.40
2022-12-01T23:50:50.607Z,21.55
2022-12-01T23:53:54.239Z,22.70
2022-12-01T23:56:22.025Z,21.55
2022-12-01T23:58:49.165Z,21.77
